sensor_id;sensor_type;location;lat;lon;timestamp;P1;durP1;ratioP1;P2;durP2;ratioP2
3849;SDS011;1940;51.052;13.678;2022-09-02T00:00:32;4.87;;;3.30;;
3849;SDS011;1940;51.052;13.678;2022-09-02T00:02:57;8.50;;;3.70;;
3849;SDS011;1940;51.052;13.678;2022-09-02T00:05:23;5.80;;;3.40;;
3849;SDS011;1940;51.052;13.678;2022-09-02T00:07:49;7.67;;;3.70;;
3849;SDS011;1940;51.052;13.678;2022-09-02T00:10:15;6.60;;;3.70;;
3849;SDS011;1940;51.052;13.678;2022-09-02T00:12:40;5.17;;;3.53;;
3849;SDS011;1940;51.052;13.678;2022-09-02T00:15:06;12.43;;;4.13;;
3849;SDS011;1940;51.052;13.678;2022-09-02T00:17:32;6.80;;;4.03;;
3849;SDS011;1940;51.052;13.678;2022-09-02T00:19:57;6.60;;;3.70;;
3849;SDS011;1940;51.052;13.678;2022-09-02T00:22:23;7.10;;;3.80;;
3849;SDS011;1940;51.052;13.678;2022-09-02T00:24:48;7.87;;;3.40;;
3849;SDS011;1940;51.052;13.678;2022-09-02T00:27:14;9.13;;;3.97;;
3849;SDS011;1940;51.052;13.678;2022-09-02T00:29:39;7.50;;;3.77;;
3849;SDS011;1940;51.052;13.678;2022-09-02T00:32:05;7.00;;;3.93;;
3849;SDS011;1940;51.052;13.678;2022-09-02T00:34:30;6.70;;;3.80;;
3849;SDS011;1940;51.052;13.678;2022-09-02T00:36:57;5.30;;;3.63;;
3849;SDS011;1940;51.052;13.678;2022-09-02T00:39:23;6.70;;;3.50;;
3849;SDS011;1940;51.052;13.678;2022-09-02T00:41:48;7.23;;;3.80;;
3849;SDS011;1940;51.052;13.678;2022-09-02T00:44:15;7.13;;;4.07;;
3849;SDS011;1940;51.052;13.678;2022-09-02T00:46:42;10.10;;;3.47;;
3849;SDS011;1940;51.052;13.678;2022-09-02T00:51:41;7.53;;;4.30;;
3849;SDS011;1940;51.052;13.678;2022-09-02T00:54:11;8.33;;;4.37;;
3849;SDS011;1940;51.052;13.678;2022-09-02T00:56:38;6.30;;;4.00;;
3849;SDS011;1940;51.052;13.678;2022-09-02T00:59:06;5.87;;;3.80;;
3849;SDS011;1940;51.052;13.678;2022-09-02T01:01:32;9.67;;;4.27;;
3849;SDS011;1940;51.052;13.678;2022-09-02T01:03:57;9.47;;;4.67;;
3849;SDS011;1940;51.052;13.678;2022-09-02T01:06:24;8.67;;;4.23;;
3849;SDS011;1940;51.052;13.678;2022-09-02T01:08:54;6.90;;;3.90;;
3849;SDS011;1940;51.052;13.678;2022-09-02T01:11:29;6.53;;;3.90;;
3849;SDS011;1940;51.052;13.678;2022-09-02T01:14:02;8.00;;;4.20;;
3849;SDS011;1940;51.052;13.678;2022-09-02T01:16:32;7.47;;;4.30;;
3849;SDS011;1940;51.052;13.678;2022-09-02T01:19:04;6.13;;;3.63;;
3849;SDS011;1940;51.052;13.678;2022-09-02T01:21:34;6.03;;;4.00;;
3849;SDS011;1940;51.052;13.678;2022-09-02T01:24:00;9.07;;;4.20;;
3849;SDS011;1940;51.052;13.678;2022-09-02T01:26:26;7.50;;;4.50;;
3849;SDS011;1940;51.052;13.678;2022-09-02T01:28:51;8.93;;;4.00;;
3849;SDS011;1940;51.052;13.678;2022-09-02T01:31:16;8.33;;;4.40;;
3849;SDS011;1940;51.052;13.678;2022-09-02T01:33:42;6.77;;;4.27;;
3849;SDS011;1940;51.052;13.678;2022-09-02T01:36:08;9.47;;;4.40;;
3849;SDS011;1940;51.052;13.678;2022-09-02T01:38:33;12.30;;;4.47;;
3849;SDS011;1940;51.052;13.678;2022-09-02T01:40:59;9.40;;;4.40;;
3849;SDS011;1940;51.052;13.678;2022-09-02T01:43:25;9.10;;;4.57;;
3849;SDS011;1940;51.052;13.678;2022-09-02T01:45:53;7.90;;;5.00;;
3849;SDS011;1940;51.052;13.678;2022-09-02T01:48:19;7.80;;;4.87;;
3849;SDS011;1940;51.052;13.678;2022-09-02T01:50:49;8.43;;;5.03;;
3849;SDS011;1940;51.052;13.678;2022-09-02T01:53:20;8.77;;;4.87;;
3849;SDS011;1940;51.052;13.678;2022-09-02T01:55:45;6.87;;;4.10;;
3849;SDS011;1940;51.052;13.678;2022-09-02T01:58:11;7.83;;;4.03;;
3849;SDS011;1940;51.052;13.678;2022-09-02T02:00:37;7.77;;;4.40;;
3849;SDS011;1940;51.052;13.678;2022-09-02T02:03:02;7.17;;;4.23;;
3849;SDS011;1940;51.052;13.678;2022-09-02T02:05:28;9.30;;;4.80;;
3849;SDS011;1940;51.052;13.678;2022-09-02T02:07:54;6.83;;;4.43;;
3849;SDS011;1940;51.052;13.678;2022-09-02T02:10:20;7.90;;;4.00;;
3849;SDS011;1940;51.052;13.678;2022-09-02T02:12:46;9.53;;;5.07;;
3849;SDS011;1940;51.052;13.678;2022-09-02T02:15:16;8.27;;;5.13;;
3849;SDS011;1940;51.052;13.678;2022-09-02T02:17:43;10.13;;;5.23;;
3849;SDS011;1940;51.052;13.678;2022-09-02T02:20:10;6.97;;;4.83;;
3849;SDS011;1940;51.052;13.678;2022-09-02T02:22:39;7.63;;;4.70;;
3849;SDS011;1940;51.052;13.678;2022-09-02T02:25:05;7.63;;;4.70;;
3849;SDS011;1940;51.052;13.678;2022-09-02T02:27:32;8.00;;;4.50;;
3849;SDS011;1940;51.052;13.678;2022-09-02T02:29:57;7.30;;;4.43;;
3849;SDS011;1940;51.052;13.678;2022-09-02T02:32:23;7.73;;;4.57;;
3849;SDS011;1940;51.052;13.678;2022-09-02T02:34:50;7.13;;;4.30;;
3849;SDS011;1940;51.052;13.678;2022-09-02T02:37:16;7.57;;;4.60;;
3849;SDS011;1940;51.052;13.678;2022-09-02T02:39:42;6.73;;;4.03;;
3849;SDS011;1940;51.052;13.678;2022-09-02T02:42:08;8.60;;;4.60;;
3849;SDS011;1940;51.052;13.678;2022-09-02T02:44:36;6.10;;;4.03;;
3849;SDS011;1940;51.052;13.678;2022-09-02T02:47:03;5.70;;;3.77;;
3849;SDS011;1940;51.052;13.678;2022-09-02T02:49:28;7.63;;;4.47;;
3849;SDS011;1940;51.052;13.678;2022-09-02T02:51:54;7.83;;;4.43;;
3849;SDS011;1940;51.052;13.678;2022-09-02T02:54:19;7.33;;;3.97;;
3849;SDS011;1940;51.052;13.678;2022-09-02T02:56:45;8.07;;;4.40;;
3849;SDS011;1940;51.052;13.678;2022-09-02T02:59:11;8.83;;;4.57;;
3849;SDS011;1940;51.052;13.678;2022-09-02T03:01:37;6.43;;;3.60;;
3849;SDS011;1940;51.052;13.678;2022-09-02T03:04:03;8.63;;;4.30;;
3849;SDS011;1940;51.052;13.678;2022-09-02T03:06:29;7.57;;;4.60;;
3849;SDS011;1940;51.052;13.678;2022-09-02T03:08:55;6.87;;;4.13;;
3849;SDS011;1940;51.052;13.678;2022-09-02T03:11:21;5.80;;;3.67;;
3849;SDS011;1940;51.052;13.678;2022-09-02T03:13:48;10.33;;;4.33;;
3849;SDS011;1940;51.052;13.678;2022-09-02T03:16:14;5.33;;;3.37;;
3849;SDS011;1940;51.052;13.678;2022-09-02T03:18:40;5.60;;;4.30;;
3849;SDS011;1940;51.052;13.678;2022-09-02T03:21:06;7.77;;;3.60;;
3849;SDS011;1940;51.052;13.678;2022-09-02T03:23:33;6.87;;;4.17;;
3849;SDS011;1940;51.052;13.678;2022-09-02T03:25:58;7.40;;;4.80;;
3849;SDS011;1940;51.052;13.678;2022-09-02T03:28:24;8.00;;;4.73;;
3849;SDS011;1940;51.052;13.678;2022-09-02T03:30:49;10.67;;;5.57;;
3849;SDS011;1940;51.052;13.678;2022-09-02T03:33:15;13.43;;;7.00;;
3849;SDS011;1940;51.052;13.678;2022-09-02T03:35:41;6.63;;;4.50;;
3849;SDS011;1940;51.052;13.678;2022-09-02T03:38:08;7.40;;;4.43;;
3849;SDS011;1940;51.052;13.678;2022-09-02T03:40:35;7.00;;;4.70;;
3849;SDS011;1940;51.052;13.678;2022-09-02T03:43:01;8.93;;;4.90;;
3849;SDS011;1940;51.052;13.678;2022-09-02T03:45:27;10.03;;;5.13;;
3849;SDS011;1940;51.052;13.678;2022-09-02T03:47:53;9.50;;;4.97;;
3849;SDS011;1940;51.052;13.678;2022-09-02T03:50:20;8.27;;;5.07;;
3849;SDS011;1940;51.052;13.678;2022-09-02T03:52:57;11.97;;;5.30;;
3849;SDS011;1940;51.052;13.678;2022-09-02T03:55:24;10.97;;;5.23;;
3849;SDS011;1940;51.052;13.678;2022-09-02T03:57:50;7.90;;;5.27;;
3849;SDS011;1940;51.052;13.678;2022-09-02T04:00:17;10.47;;;4.57;;
3849;SDS011;1940;51.052;13.678;2022-09-02T04:02:44;10.93;;;5.60;;
3849;SDS011;1940;51.052;13.678;2022-09-02T04:05:09;10.30;;;5.70;;
3849;SDS011;1940;51.052;13.678;2022-09-02T04:07:36;24.77;;;5.57;;
3849;SDS011;1940;51.052;13.678;2022-09-02T04:10:02;8.10;;;5.30;;
3849;SDS011;1940;51.052;13.678;2022-09-02T04:12:28;9.90;;;5.33;;
3849;SDS011;1940;51.052;13.678;2022-09-02T04:14:54;10.17;;;5.83;;
3849;SDS011;1940;51.052;13.678;2022-09-02T04:17:19;8.93;;;5.43;;
3849;SDS011;1940;51.052;13.678;2022-09-02T04:19:45;14.47;;;6.00;;
3849;SDS011;1940;51.052;13.678;2022-09-02T04:22:10;9.13;;;5.83;;
3849;SDS011;1940;51.052;13.678;2022-09-02T04:24:36;10.37;;;5.90;;
3849;SDS011;1940;51.052;13.678;2022-09-02T04:27:02;8.17;;;5.30;;
3849;SDS011;1940;51.052;13.678;2022-09-02T04:29:28;9.67;;;5.10;;
3849;SDS011;1940;51.052;13.678;2022-09-02T04:31:55;10.07;;;5.30;;
3849;SDS011;1940;51.052;13.678;2022-09-02T04:34:20;9.23;;;5.37;;
3849;SDS011;1940;51.052;13.678;2022-09-02T04:36:46;10.93;;;6.07;;
3849;SDS011;1940;51.052;13.678;2022-09-02T04:39:11;8.97;;;5.23;;
3849;SDS011;1940;51.052;13.678;2022-09-02T04:41:37;10.33;;;5.27;;
3849;SDS011;1940;51.052;13.678;2022-09-02T04:44:03;9.63;;;5.97;;
3849;SDS011;1940;51.052;13.678;2022-09-02T04:46:29;12.70;;;6.67;;
3849;SDS011;1940;51.052;13.678;2022-09-02T04:48:55;11.63;;;6.80;;
3849;SDS011;1940;51.052;13.678;2022-09-02T04:51:22;38.73;;;7.03;;
3849;SDS011;1940;51.052;13.678;2022-09-02T04:53:50;19.27;;;6.10;;
3849;SDS011;1940;51.052;13.678;2022-09-02T04:56:18;16.63;;;6.40;;
3849;SDS011;1940;51.052;13.678;2022-09-02T04:58:46;11.43;;;5.80;;
3849;SDS011;1940;51.052;13.678;2022-09-02T05:01:15;8.60;;;4.73;;
3849;SDS011;1940;51.052;13.678;2022-09-02T05:03:49;10.63;;;5.13;;
3849;SDS011;1940;51.052;13.678;2022-09-02T05:06:17;8.07;;;4.10;;
3849;SDS011;1940;51.052;13.678;2022-09-02T05:08:50;7.63;;;4.80;;
3849;SDS011;1940;51.052;13.678;2022-09-02T05:11:17;9.70;;;5.30;;
3849;SDS011;1940;51.052;13.678;2022-09-02T05:13:45;8.60;;;4.40;;
3849;SDS011;1940;51.052;13.678;2022-09-02T05:16:18;12.00;;;4.50;;
3849;SDS011;1940;51.052;13.678;2022-09-02T05:18:49;10.50;;;4.03;;
3849;SDS011;1940;51.052;13.678;2022-09-02T05:21:16;6.83;;;3.83;;
3849;SDS011;1940;51.052;13.678;2022-09-02T05:23:42;8.73;;;4.40;;
3849;SDS011;1940;51.052;13.678;2022-09-02T05:26:08;9.40;;;4.33;;
3849;SDS011;1940;51.052;13.678;2022-09-02T05:28:36;7.93;;;4.70;;
3849;SDS011;1940;51.052;13.678;2022-09-02T05:31:04;7.57;;;4.17;;
3849;SDS011;1940;51.052;13.678;2022-09-02T05:33:42;7.67;;;4.23;;
3849;SDS011;1940;51.052;13.678;2022-09-02T05:36:10;6.90;;;3.40;;
3849;SDS011;1940;51.052;13.678;2022-09-02T05:38:38;6.40;;;3.23;;
3849;SDS011;1940;51.052;13.678;2022-09-02T05:41:08;6.20;;;2.90;;
3849;SDS011;1940;51.052;13.678;2022-09-02T05:43:38;5.57;;;3.17;;
3849;SDS011;1940;51.052;13.678;2022-09-02T05:46:05;3.80;;;2.57;;
3849;SDS011;1940;51.052;13.678;2022-09-02T05:48:33;3.90;;;2.83;;
3849;SDS011;1940;51.052;13.678;2022-09-02T05:51:26;5.57;;;3.20;;
3849;SDS011;1940;51.052;13.678;2022-09-02T05:53:53;5.13;;;2.93;;
3849;SDS011;1940;51.052;13.678;2022-09-02T05:56:20;4.60;;;2.80;;
3849;SDS011;1940;51.052;13.678;2022-09-02T05:58:46;11.43;;;2.80;;
3849;SDS011;1940;51.052;13.678;2022-09-02T06:01:13;4.50;;;2.50;;
3849;SDS011;1940;51.052;13.678;2022-09-02T06:03:39;7.10;;;2.90;;
3849;SDS011;1940;51.052;13.678;2022-09-02T06:06:05;5.30;;;2.90;;
3849;SDS011;1940;51.052;13.678;2022-09-02T06:08:31;5.50;;;2.70;;
3849;SDS011;1940;51.052;13.678;2022-09-02T06:10:58;6.30;;;3.27;;
3849;SDS011;1940;51.052;13.678;2022-09-02T06:13:26;4.43;;;3.03;;
3849;SDS011;1940;51.052;13.678;2022-09-02T06:15:53;4.70;;;2.90;;
3849;SDS011;1940;51.052;13.678;2022-09-02T06:18:18;3.90;;;2.67;;
3849;SDS011;1940;51.052;13.678;2022-09-02T06:20:45;4.00;;;2.70;;
3849;SDS011;1940;51.052;13.678;2022-09-02T06:23:12;8.13;;;4.23;;
3849;SDS011;1940;51.052;13.678;2022-09-02T06:25:40;4.30;;;3.07;;
3849;SDS011;1940;51.052;13.678;2022-09-02T06:28:07;5.17;;;3.20;;
3849;SDS011;1940;51.052;13.678;2022-09-02T06:30:33;6.97;;;3.23;;
3849;SDS011;1940;51.052;13.678;2022-09-02T06:32:59;4.80;;;2.73;;
3849;SDS011;1940;51.052;13.678;2022-09-02T06:35:27;4.27;;;2.83;;
3849;SDS011;1940;51.052;13.678;2022-09-02T06:37:52;6.00;;;3.37;;
3849;SDS011;1940;51.052;13.678;2022-09-02T06:40:18;6.23;;;3.10;;
3849;SDS011;1940;51.052;13.678;2022-09-02T06:42:43;3.43;;;2.70;;
3849;SDS011;1940;51.052;13.678;2022-09-02T06:45:09;4.07;;;3.13;;
3849;SDS011;1940;51.052;13.678;2022-09-02T06:47:36;3.90;;;2.53;;
3849;SDS011;1940;51.052;13.678;2022-09-02T06:50:02;4.10;;;2.83;;
3849;SDS011;1940;51.052;13.678;2022-09-02T06:52:28;4.60;;;2.73;;
3849;SDS011;1940;51.052;13.678;2022-09-02T06:54:53;10.80;;;2.73;;
3849;SDS011;1940;51.052;13.678;2022-09-02T06:57:19;7.13;;;2.83;;
3849;SDS011;1940;51.052;13.678;2022-09-02T06:59:45;6.63;;;2.67;;
3849;SDS011;1940;51.052;13.678;2022-09-02T07:02:11;4.17;;;2.80;;
3849;SDS011;1940;51.052;13.678;2022-09-02T07:04:37;4.70;;;2.70;;
3849;SDS011;1940;51.052;13.678;2022-09-02T07:07:22;5.40;;;2.63;;
3849;SDS011;1940;51.052;13.678;2022-09-02T07:09:48;5.57;;;2.30;;
3849;SDS011;1940;51.052;13.678;2022-09-02T07:12:14;5.17;;;2.00;;
3849;SDS011;1940;51.052;13.678;2022-09-02T07:14:41;4.17;;;2.60;;
3849;SDS011;1940;51.052;13.678;2022-09-02T07:17:08;4.50;;;2.23;;
3849;SDS011;1940;51.052;13.678;2022-09-02T07:19:35;3.00;;;1.83;;
3849;SDS011;1940;51.052;13.678;2022-09-02T07:22:02;2.33;;;1.90;;
3849;SDS011;1940;51.052;13.678;2022-09-02T07:24:29;5.30;;;2.20;;
3849;SDS011;1940;51.052;13.678;2022-09-02T07:26:54;2.70;;;1.70;;
3849;SDS011;1940;51.052;13.678;2022-09-02T07:29:20;4.70;;;1.80;;
3849;SDS011;1940;51.052;13.678;2022-09-02T07:31:46;6.00;;;1.83;;
3849;SDS011;1940;51.052;13.678;2022-09-02T07:34:13;5.23;;;2.20;;
3849;SDS011;1940;51.052;13.678;2022-09-02T07:36:39;4.73;;;1.60;;
3849;SDS011;1940;51.052;13.678;2022-09-02T07:39:07;5.10;;;2.10;;
3849;SDS011;1940;51.052;13.678;2022-09-02T07:41:34;3.43;;;1.93;;
3849;SDS011;1940;51.052;13.678;2022-09-02T07:44:02;1.83;;;1.73;;
3849;SDS011;1940;51.052;13.678;2022-09-02T07:46:29;4.20;;;1.90;;
3849;SDS011;1940;51.052;13.678;2022-09-02T07:48:56;5.90;;;1.87;;
3849;SDS011;1940;51.052;13.678;2022-09-02T07:51:23;2.53;;;1.80;;
3849;SDS011;1940;51.052;13.678;2022-09-02T07:53:49;2.00;;;1.60;;
3849;SDS011;1940;51.052;13.678;2022-09-02T07:56:15;3.57;;;1.80;;
3849;SDS011;1940;51.052;13.678;2022-09-02T07:58:42;2.40;;;1.80;;
3849;SDS011;1940;51.052;13.678;2022-09-02T08:01:10;2.03;;;1.60;;
3849;SDS011;1940;51.052;13.678;2022-09-02T08:03:36;2.87;;;1.33;;
3849;SDS011;1940;51.052;13.678;2022-09-02T08:06:04;3.40;;;1.80;;
3849;SDS011;1940;51.052;13.678;2022-09-02T08:08:30;2.20;;;1.20;;
3849;SDS011;1940;51.052;13.678;2022-09-02T08:10:56;1.13;;;1.03;;
3849;SDS011;1940;51.052;13.678;2022-09-02T08:13:22;1.13;;;1.03;;
3849;SDS011;1940;51.052;13.678;2022-09-02T08:15:48;1.60;;;1.50;;
3849;SDS011;1940;51.052;13.678;2022-09-02T08:18:14;1.60;;;1.40;;
3849;SDS011;1940;51.052;13.678;2022-09-02T08:20:39;1.40;;;1.10;;
3849;SDS011;1940;51.052;13.678;2022-09-02T08:23:05;2.80;;;1.30;;
3849;SDS011;1940;51.052;13.678;2022-09-02T08:25:32;1.30;;;1.20;;
3849;SDS011;1940;51.052;13.678;2022-09-02T08:27:58;2.00;;;1.47;;
3849;SDS011;1940;51.052;13.678;2022-09-02T08:30:24;2.30;;;1.20;;
3849;SDS011;1940;51.052;13.678;2022-09-02T08:32:50;1.83;;;1.10;;
3849;SDS011;1940;51.052;13.678;2022-09-02T08:35:15;1.77;;;1.10;;
3849;SDS011;1940;51.052;13.678;2022-09-02T08:37:41;1.37;;;1.23;;
3849;SDS011;1940;51.052;13.678;2022-09-02T08:40:07;1.77;;;1.30;;
3849;SDS011;1940;51.052;13.678;2022-09-02T08:42:41;1.73;;;1.47;;
3849;SDS011;1940;51.052;13.678;2022-09-02T08:45:10;2.97;;;1.10;;
3849;SDS011;1940;51.052;13.678;2022-09-02T08:47:36;1.00;;;0.90;;
3849;SDS011;1940;51.052;13.678;2022-09-02T08:50:12;1.53;;;1.30;;
3849;SDS011;1940;51.052;13.678;2022-09-02T08:55:44;0.90;;;0.90;;
3849;SDS011;1940;51.052;13.678;2022-09-02T08:58:16;1.17;;;1.07;;
3849;SDS011;1940;51.052;13.678;2022-09-02T09:00:45;2.00;;;1.40;;
3849;SDS011;1940;51.052;13.678;2022-09-02T09:14:39;1.00;;;0.90;;
3849;SDS011;1940;51.052;13.678;2022-09-02T09:17:16;2.10;;;0.90;;
3849;SDS011;1940;51.052;13.678;2022-09-02T09:19:58;1.10;;;1.00;;
3849;SDS011;1940;51.052;13.678;2022-09-02T09:22:29;0.80;;;0.80;;
3849;SDS011;1940;51.052;13.678;2022-09-02T09:24:57;0.87;;;0.70;;
3849;SDS011;1940;51.052;13.678;2022-09-02T09:27:23;1.60;;;1.00;;
3849;SDS011;1940;51.052;13.678;2022-09-02T09:29:49;4.10;;;1.10;;
3849;SDS011;1940;51.052;13.678;2022-09-02T09:32:20;2.67;;;0.90;;
3849;SDS011;1940;51.052;13.678;2022-09-02T09:37:28;1.77;;;1.00;;
3849;SDS011;1940;51.052;13.678;2022-09-02T09:39:56;2.50;;;0.97;;
3849;SDS011;1940;51.052;13.678;2022-09-02T09:42:35;1.83;;;1.23;;
3849;SDS011;1940;51.052;13.678;2022-09-02T09:45:24;0.73;;;0.73;;
3849;SDS011;1940;51.052;13.678;2022-09-02T09:48:09;1.07;;;1.00;;
3849;SDS011;1940;51.052;13.678;2022-09-02T09:50:45;2.37;;;0.90;;
3849;SDS011;1940;51.052;13.678;2022-09-02T09:53:23;1.00;;;0.80;;
3849;SDS011;1940;51.052;13.678;2022-09-02T09:55:54;0.80;;;0.80;;
3849;SDS011;1940;51.052;13.678;2022-09-02T09:58:22;0.80;;;0.70;;
3849;SDS011;1940;51.052;13.678;2022-09-02T10:00:51;0.80;;;0.80;;
3849;SDS011;1940;51.052;13.678;2022-09-02T10:03:25;1.73;;;0.87;;
3849;SDS011;1940;51.052;13.678;2022-09-02T10:05:53;1.23;;;1.10;;
3849;SDS011;1940;51.052;13.678;2022-09-02T10:08:21;1.67;;;1.00;;
3849;SDS011;1940;51.052;13.678;2022-09-02T10:10:55;3.33;;;0.77;;
3849;SDS011;1940;51.052;13.678;2022-09-02T10:13:28;0.90;;;0.83;;
3849;SDS011;1940;51.052;13.678;2022-09-02T10:25:04;1.17;;;0.80;;
3849;SDS011;1940;51.052;13.678;2022-09-02T10:27:54;0.97;;;0.90;;
3849;SDS011;1940;51.052;13.678;2022-09-02T10:30:28;1.43;;;1.23;;
3849;SDS011;1940;51.052;13.678;2022-09-02T10:33:06;3.23;;;1.13;;
3849;SDS011;1940;51.052;13.678;2022-09-02T10:35:42;1.20;;;1.03;;
3849;SDS011;1940;51.052;13.678;2022-09-02T10:47:07;2.50;;;1.20;;
3849;SDS011;1940;51.052;13.678;2022-09-02T10:55:07;2.23;;;0.90;;
3849;SDS011;1940;51.052;13.678;2022-09-02T10:58:20;1.30;;;1.10;;
3849;SDS011;1940;51.052;13.678;2022-09-02T11:00:30;1.90;;;0.97;;
3849;SDS011;1940;51.052;13.678;2022-09-02T11:05:41;1.20;;;0.83;;
3849;SDS011;1940;51.052;13.678;2022-09-02T11:08:13;2.70;;;1.00;;
3849;SDS011;1940;51.052;13.678;2022-09-02T11:11:05;1.10;;;1.00;;
3849;SDS011;1940;51.052;13.678;2022-09-02T11:16:28;2.80;;;1.00;;
3849;SDS011;1940;51.052;13.678;2022-09-02T11:24:36;4.73;;;1.40;;
3849;SDS011;1940;51.052;13.678;2022-09-02T11:27:13;1.40;;;0.97;;
3849;SDS011;1940;51.052;13.678;2022-09-02T11:29:56;2.07;;;1.20;;
3849;SDS011;1940;51.052;13.678;2022-09-02T11:32:42;1.10;;;0.90;;
3849;SDS011;1940;51.052;13.678;2022-09-02T11:35:17;2.17;;;1.10;;
3849;SDS011;1940;51.052;13.678;2022-09-02T11:37:49;1.33;;;0.90;;
3849;SDS011;1940;51.052;13.678;2022-09-02T11:40:23;1.93;;;1.60;;
3849;SDS011;1940;51.052;13.678;2022-09-02T11:54:13;1.27;;;1.10;;
3849;SDS011;1940;51.052;13.678;2022-09-02T11:56:43;1.20;;;1.10;;
3849;SDS011;1940;51.052;13.678;2022-09-02T12:00:24;1.10;;;0.97;;
3849;SDS011;1940;51.052;13.678;2022-09-02T12:02:50;0.90;;;0.80;;
3849;SDS011;1940;51.052;13.678;2022-09-02T12:08:55;1.13;;;1.00;;
3849;SDS011;1940;51.052;13.678;2022-09-02T12:11:04;1.20;;;1.10;;
3849;SDS011;1940;51.052;13.678;2022-09-02T12:18:39;1.33;;;1.20;;
3849;SDS011;1940;51.052;13.678;2022-09-02T12:21:14;1.67;;;1.20;;
3849;SDS011;1940;51.052;13.678;2022-09-02T12:26:16;0.97;;;0.90;;
3849;SDS011;1940;51.052;13.678;2022-09-02T12:28:43;1.00;;;0.90;;
3849;SDS011;1940;51.052;13.678;2022-09-02T12:31:11;1.27;;;1.10;;
3849;SDS011;1940;51.052;13.678;2022-09-02T12:33:43;1.00;;;0.93;;
3849;SDS011;1940;51.052;13.678;2022-09-02T12:50:04;1.00;;;0.90;;
3849;SDS011;1940;51.052;13.678;2022-09-02T12:52:50;1.00;;;0.80;;
3849;SDS011;1940;51.052;13.678;2022-09-02T12:55:31;0.90;;;0.80;;
3849;SDS011;1940;51.052;13.678;2022-09-02T12:58:08;1.07;;;0.90;;
3849;SDS011;1940;51.052;13.678;2022-09-02T13:00:38;1.00;;;0.90;;
3849;SDS011;1940;51.052;13.678;2022-09-02T13:06:11;1.37;;;0.87;;
3849;SDS011;1940;51.052;13.678;2022-09-02T13:18:10;1.10;;;0.90;;
3849;SDS011;1940;51.052;13.678;2022-09-02T13:21:03;3.27;;;1.20;;
3849;SDS011;1940;51.052;13.678;2022-09-02T13:28:19;1.10;;;0.90;;
3849;SDS011;1940;51.052;13.678;2022-09-02T13:30:36;1.87;;;1.40;;
3849;SDS011;1940;51.052;13.678;2022-09-02T13:33:15;1.40;;;1.10;;
3849;SDS011;1940;51.052;13.678;2022-09-02T13:35:40;1.20;;;0.97;;
3849;SDS011;1940;51.052;13.678;2022-09-02T13:38:10;1.87;;;1.20;;
3849;SDS011;1940;51.052;13.678;2022-09-02T13:40:37;1.60;;;1.13;;
3849;SDS011;1940;51.052;13.678;2022-09-02T13:43:14;1.90;;;1.20;;
3849;SDS011;1940;51.052;13.678;2022-09-02T13:45:41;0.90;;;0.80;;
3849;SDS011;1940;51.052;13.678;2022-09-02T13:48:18;2.43;;;1.00;;
3849;SDS011;1940;51.052;13.678;2022-09-02T13:50:45;1.47;;;1.23;;
3849;SDS011;1940;51.052;13.678;2022-09-02T13:53:26;3.33;;;1.27;;
3849;SDS011;1940;51.052;13.678;2022-09-02T13:55:56;2.30;;;1.00;;
3849;SDS011;1940;51.052;13.678;2022-09-02T14:00:52;3.80;;;1.27;;
3849;SDS011;1940;51.052;13.678;2022-09-02T14:03:18;1.00;;;0.90;;
3849;SDS011;1940;51.052;13.678;2022-09-02T14:05:49;1.00;;;0.90;;
3849;SDS011;1940;51.052;13.678;2022-09-02T14:08:25;2.10;;;1.20;;
3849;SDS011;1940;51.052;13.678;2022-09-02T14:10:53;2.00;;;0.90;;
3849;SDS011;1940;51.052;13.678;2022-09-02T14:13:19;1.10;;;1.00;;
3849;SDS011;1940;51.052;13.678;2022-09-02T14:15:46;3.67;;;1.27;;
3849;SDS011;1940;51.052;13.678;2022-09-02T14:23:23;1.50;;;1.40;;
3849;SDS011;1940;51.052;13.678;2022-09-02T14:25:55;2.47;;;1.00;;
3849;SDS011;1940;51.052;13.678;2022-09-02T14:28:23;1.30;;;1.03;;
3849;SDS011;1940;51.052;13.678;2022-09-02T14:30:54;1.20;;;1.10;;
3849;SDS011;1940;51.052;13.678;2022-09-02T14:33:41;1.00;;;0.90;;
3849;SDS011;1940;51.052;13.678;2022-09-02T14:43:45;3.10;;;1.10;;
3849;SDS011;1940;51.052;13.678;2022-09-02T14:46:14;1.53;;;1.10;;
3849;SDS011;1940;51.052;13.678;2022-09-02T14:49:06;4.37;;;1.30;;
3849;SDS011;1940;51.052;13.678;2022-09-02T14:51:39;1.90;;;1.27;;
3849;SDS011;1940;51.052;13.678;2022-09-02T14:54:09;1.40;;;1.10;;
3849;SDS011;1940;51.052;13.678;2022-09-02T14:56:48;1.23;;;1.10;;
3849;SDS011;1940;51.052;13.678;2022-09-02T14:59:15;2.33;;;1.17;;
3849;SDS011;1940;51.052;13.678;2022-09-02T15:01:42;3.77;;;1.50;;
3849;SDS011;1940;51.052;13.678;2022-09-02T15:04:14;1.30;;;1.20;;
3849;SDS011;1940;51.052;13.678;2022-09-02T15:06:40;1.87;;;1.40;;
3849;SDS011;1940;51.052;13.678;2022-09-02T15:09:06;2.43;;;1.57;;
3849;SDS011;1940;51.052;13.678;2022-09-02T15:11:32;2.23;;;1.30;;
3849;SDS011;1940;51.052;13.678;2022-09-02T15:13:58;2.27;;;1.30;;
3849;SDS011;1940;51.052;13.678;2022-09-02T15:16:23;1.53;;;1.20;;
3849;SDS011;1940;51.052;13.678;2022-09-02T15:21:28;1.20;;;1.10;;
3849;SDS011;1940;51.052;13.678;2022-09-02T15:23:53;1.10;;;0.90;;
3849;SDS011;1940;51.052;13.678;2022-09-02T15:26:21;1.40;;;1.27;;
3849;SDS011;1940;51.052;13.678;2022-09-02T15:28:48;2.07;;;1.10;;
3849;SDS011;1940;51.052;13.678;2022-09-02T15:31:14;2.23;;;1.27;;
3849;SDS011;1940;51.052;13.678;2022-09-02T15:33:40;1.67;;;1.40;;
3849;SDS011;1940;51.052;13.678;2022-09-02T15:38:33;2.93;;;1.40;;
3849;SDS011;1940;51.052;13.678;2022-09-02T15:41:21;1.87;;;1.50;;
3849;SDS011;1940;51.052;13.678;2022-09-02T15:43:46;3.17;;;1.70;;
3849;SDS011;1940;51.052;13.678;2022-09-02T15:48:46;3.73;;;1.50;;
3849;SDS011;1940;51.052;13.678;2022-09-02T15:51:12;1.33;;;1.17;;
3849;SDS011;1940;51.052;13.678;2022-09-02T15:53:39;1.87;;;1.27;;
3849;SDS011;1940;51.052;13.678;2022-09-02T15:56:13;2.40;;;1.60;;
3849;SDS011;1940;51.052;13.678;2022-09-02T15:58:40;4.03;;;2.70;;
3849;SDS011;1940;51.052;13.678;2022-09-02T16:01:05;2.10;;;1.27;;
3849;SDS011;1940;51.052;13.678;2022-09-02T16:03:31;1.60;;;1.20;;
3849;SDS011;1940;51.052;13.678;2022-09-02T16:06:03;2.57;;;1.60;;
3849;SDS011;1940;51.052;13.678;2022-09-02T16:08:32;1.70;;;1.30;;
3849;SDS011;1940;51.052;13.678;2022-09-02T16:11:02;6.45;;;1.80;;
3849;SDS011;1940;51.052;13.678;2022-09-02T16:13:29;6.13;;;1.57;;
3849;SDS011;1940;51.052;13.678;2022-09-02T16:15:58;1.90;;;1.70;;
3849;SDS011;1940;51.052;13.678;2022-09-02T16:18:25;3.43;;;1.53;;
3849;SDS011;1940;51.052;13.678;2022-09-02T16:20:56;1.80;;;1.30;;
3849;SDS011;1940;51.052;13.678;2022-09-02T16:23:22;1.97;;;1.40;;
3849;SDS011;1940;51.052;13.678;2022-09-02T16:25:53;1.87;;;1.50;;
3849;SDS011;1940;51.052;13.678;2022-09-02T16:28:40;1.20;;;1.10;;
3849;SDS011;1940;51.052;13.678;2022-09-02T16:31:08;1.73;;;1.30;;
3849;SDS011;1940;51.052;13.678;2022-09-02T16:33:35;3.03;;;1.40;;
3849;SDS011;1940;51.052;13.678;2022-09-02T16:36:01;5.57;;;1.53;;
3849;SDS011;1940;51.052;13.678;2022-09-02T16:38:27;2.13;;;1.23;;
3849;SDS011;1940;51.052;13.678;2022-09-02T16:40:53;3.53;;;1.60;;
3849;SDS011;1940;51.052;13.678;2022-09-02T16:43:21;1.40;;;1.20;;
3849;SDS011;1940;51.052;13.678;2022-09-02T16:45:47;2.10;;;1.40;;
3849;SDS011;1940;51.052;13.678;2022-09-02T16:48:14;2.00;;;1.17;;
3849;SDS011;1940;51.052;13.678;2022-09-02T16:50:39;1.80;;;1.27;;
3849;SDS011;1940;51.052;13.678;2022-09-02T16:53:06;1.33;;;1.10;;
3849;SDS011;1940;51.052;13.678;2022-09-02T16:55:31;2.27;;;1.50;;
3849;SDS011;1940;51.052;13.678;2022-09-02T16:57:57;3.60;;;1.30;;
3849;SDS011;1940;51.052;13.678;2022-09-02T17:00:24;1.40;;;1.30;;
3849;SDS011;1940;51.052;13.678;2022-09-02T17:02:50;1.87;;;1.40;;
3849;SDS011;1940;51.052;13.678;2022-09-02T17:05:16;1.73;;;1.20;;
3849;SDS011;1940;51.052;13.678;2022-09-02T17:07:42;2.00;;;1.57;;
3849;SDS011;1940;51.052;13.678;2022-09-02T17:10:09;2.63;;;1.60;;
3849;SDS011;1940;51.052;13.678;2022-09-02T17:12:35;3.20;;;1.67;;
3849;SDS011;1940;51.052;13.678;2022-09-02T17:15:00;1.77;;;1.40;;
3849;SDS011;1940;51.052;13.678;2022-09-02T17:17:26;1.63;;;1.30;;
3849;SDS011;1940;51.052;13.678;2022-09-02T17:19:51;1.63;;;1.30;;